Time;durP1;ratioP1;P1;durP2;ratioP2;P2;SDS_P1;SDS_P2;PMS_P1;PMS_P2;Temp;Humidity;BMP_temperature;BMP_pressure;BME280_temperature;BME280_humidity;BME280_pressure;Samples;Min_cycle;Max_cycle;Signal;HPM_P1;HPM_P2
2023/08/12 00:00:12;;;;;;;;;;;;;;;28.63;32.92;101074.41;5057133;28;1914;-33
2023/08/12 00:02:41;;;;;;;;;;;;;;;28.44;33.58;101072.06;5057948;28;1179;-31
2023/08/12 00:05:07;;;;;;;;;;;;;;;28.60;33.30;101072.91;5057345;28;1072;-31
2023/08/12 00:07:33;;;;;;;;;;;;;;;28.47;33.24;101068.97;5056674;28;1118;-31
2023/08/12 00:10:00;;;;;;;;;;;;;;;28.59;32.93;101063.94;5057387;28;1025;-32
2023/08/12 00:12:26;;;;;;;;;;;;;;;28.57;33.05;101065.16;5057178;28;1001;-32
2023/08/12 00:14:51;;;;;;;;;;;;;;;28.47;33.25;101065.41;5057000;28;1164;-33
2023/08/12 00:17:17;;;;;;;;;;;;;;;28.48;33.16;101057.13;5057349;28;1012;-29
2023/08/12 00:19:42;;;;;;;;;;;;;;;28.51;32.71;101055.91;5056914;28;1985;-35
2023/08/12 00:22:08;;;;;;;;;;;;;;;28.46;32.96;101058.34;5056410;28;1136;-31
2023/08/12 00:24:33;;;;;;;;;;;;;;;28.50;33.02;101051.53;5056829;28;1060;-31
2023/08/12 00:26:59;;;;;;;;;;;;;;;28.46;33.05;101055.63;5056785;28;1109;-33
2023/08/12 00:29:25;;;;;;;;;;;;;;;28.55;32.67;101051.81;5039035;28;1129;-31
2023/08/12 00:31:50;;;;;;;;;;;;;;;28.44;32.98;101049.56;5038510;28;1306;-30
2023/08/12 00:34:17;;;;;;;;;;;;;;;28.54;32.92;101043.88;5057090;28;1135;-30
2023/08/12 00:36:42;;;;;;;;;;;;;;;28.56;32.55;101041.84;5056236;28;1083;-32
2023/08/12 00:39:08;;;;;;;;;;;;;;;28.58;32.78;101042.47;5038744;28;1985;-31
2023/08/12 00:41:33;;;;;;;;;;;;;;;28.35;32.89;101037.97;5056786;28;1223;-30
2023/08/12 00:44:00;;;;;;;;;;;;;;;28.51;32.62;101044.25;5038335;28;1318;-34
2023/08/12 00:46:26;;;;;;;;;;;;;;;28.42;32.66;101038.06;5038672;28;1158;-29
2023/08/12 00:48:52;;;;;;;;;;;;;;;28.31;32.75;101032.06;5039103;28;1090;-30
2023/08/12 00:51:17;;;;;;;;;;;;;;;28.34;32.71;101039.81;5056587;28;1016;-32
2023/08/12 00:53:43;;;;;;;;;;;;;;;28.53;32.58;101045.72;5056371;28;1271;-31
2023/08/12 00:56:09;;;;;;;;;;;;;;;28.63;32.24;101052.75;5038790;28;1259;-35
2023/08/12 00:58:34;;;;;;;;;;;;;;;28.63;32.47;101056.28;5031413;28;1902;-35
2023/08/12 01:01:00;;;;;;;;;;;;;;;28.42;32.56;101054.31;5036405;28;1336;-31
2023/08/12 01:03:26;;;;;;;;;;;;;;;28.47;32.44;101057.31;5036344;28;1116;-32
2023/08/12 01:05:51;;;;;;;;;;;;;;;28.52;32.20;101048.63;5034833;28;1135;-30
2023/08/12 01:08:17;;;;;;;;;;;;;;;28.49;32.37;101060.66;5036200;28;1132;-36
2023/08/12 01:10:44;;;;;;;;;;;;;;;28.54;32.36;101062.81;5036594;28;1049;-33
2023/08/12 01:13:17;;;;;;;;;;;;;;;28.60;32.30;101059.38;5035039;28;1306;-32
2023/08/12 01:15:43;;;;;;;;;;;;;;;28.41;32.55;101055.34;5018977;28;1069;-34
2023/08/12 01:18:09;;;;;;;;;;;;;;;28.56;32.37;101063.47;5015693;28;1131;-31
2023/08/12 01:20:34;;;;;;;;;;;;;;;28.61;31.91;101063.78;5018652;28;1985;-29
2023/08/12 01:23:13;;;;;;;;;;;;;;;28.48;32.09;101053.56;5018000;28;1044;-36
2023/08/12 01:25:39;;;;;;;;;;;;;;;28.55;32.14;101065.34;5018652;28;1276;-32
2023/08/12 01:28:04;;;;;;;;;;;;;;;28.40;32.41;101061.75;5036353;28;1037;-31
2023/08/12 01:30:30;;;;;;;;;;;;;;;28.35;32.17;101063.16;5018497;28;1041;-29
2023/08/12 01:33:05;;;;;;;;;;;;;;;28.44;32.47;101066.66;5018164;28;1299;-31
2023/08/12 01:35:41;;;;;;;;;;;;;;;28.32;32.32;101070.78;5034707;28;1142;-32
2023/08/12 01:38:07;;;;;;;;;;;;;;;28.35;32.37;101065.88;5036728;28;1081;-35
2023/08/12 01:40:32;;;;;;;;;;;;;;;28.41;32.02;101068.88;5018670;28;1984;-31
2023/08/12 01:42:58;;;;;;;;;;;;;;;28.28;32.27;101066.78;5018600;28;1208;-30
2023/08/12 01:45:24;;;;;;;;;;;;;;;28.34;32.44;101063.34;5035275;28;1032;-34
2023/08/12 01:47:52;;;;;;;;;;;;;;;28.38;32.50;101063.84;5019353;28;1220;-34
2023/08/12 01:50:19;;;;;;;;;;;;;;;28.39;32.16;101071.75;5041387;28;1091;-33
2023/08/12 01:52:44;;;;;;;;;;;;;;;28.42;32.18;101065.13;5048868;28;1043;-33
2023/08/12 01:55:10;;;;;;;;;;;;;;;28.40;32.23;101068.03;5039499;28;1072;-32
2023/08/12 01:57:35;;;;;;;;;;;;;;;28.20;32.54;101073.06;5047750;28;1065;-30
2023/08/12 02:00:03;;;;;;;;;;;;;;;28.28;32.37;101062.19;5041550;28;1977;-35
2023/08/12 02:02:42;;;;;;;;;;;;;;;28.35;32.15;101070.44;5059727;28;1139;-35
2023/08/12 02:05:08;;;;;;;;;;;;;;;28.30;32.28;101075.53;5041570;28;1094;-29
2023/08/12 02:07:33;;;;;;;;;;;;;;;28.27;32.32;101076.75;5041949;28;1517;-29
2023/08/12 02:09:59;;;;;;;;;;;;;;;28.37;31.90;101068.41;5059529;28;899;-27
2023/08/12 02:12:24;;;;;;;;;;;;;;;28.43;32.29;101069.50;5059736;28;1080;-29
2023/08/12 02:14:50;;;;;;;;;;;;;;;28.33;32.15;101075.19;5059237;28;1005;-30
2023/08/12 02:17:16;;;;;;;;;;;;;;;28.29;31.96;101068.44;5041492;28;1236;-30
2023/08/12 02:19:41;;;;;;;;;;;;;;;28.24;32.31;101072.53;5059030;28;1902;-33
2023/08/12 02:22:07;;;;;;;;;;;;;;;28.29;32.12;101079.25;5059027;28;1129;-29
2023/08/12 02:24:32;;;;;;;;;;;;;;;28.21;32.02;101077.47;5059259;28;1193;-32
2023/08/12 02:26:58;;;;;;;;;;;;;;;28.24;31.93;101082.53;5059400;28;1056;-32
2023/08/12 02:29:23;;;;;;;;;;;;;;;28.26;32.23;101076.94;5041178;28;1178;-32
2023/08/12 02:31:49;;;;;;;;;;;;;;;28.32;32.04;101079.75;5059157;28;1068;-34
2023/08/12 02:34:14;;;;;;;;;;;;;;;28.31;32.19;101082.63;5059324;28;985;-34
2023/08/12 02:36:40;;;;;;;;;;;;;;;28.26;32.16;101083.16;5040731;28;1127;-30
2023/08/12 02:39:06;;;;;;;;;;;;;;;28.38;31.88;101085.47;5058982;28;1977;-32
2023/08/12 02:41:32;;;;;;;;;;;;;;;28.30;32.26;101089.91;5059255;28;1076;-32
2023/08/12 02:43:57;;;;;;;;;;;;;;;28.30;31.80;101098.00;5040754;28;1207;-29
2023/08/12 02:46:25;;;;;;;;;;;;;;;28.39;31.66;101090.72;5058904;28;1049;-35
2023/08/12 02:48:50;;;;;;;;;;;;;;;28.41;31.98;101091.34;5040795;28;1264;-31
2023/08/12 02:51:16;;;;;;;;;;;;;;;28.31;31.59;101094.28;5058890;28;1177;-31
2023/08/12 02:53:42;;;;;;;;;;;;;;;28.22;32.06;101101.63;5058619;28;1016;-32
2023/08/12 02:56:07;;;;;;;;;;;;;;;28.30;32.17;101098.00;5040502;28;1134;-31
2023/08/12 02:58:34;;;;;;;;;;;;;;;28.32;31.87;101095.97;5040530;28;1493;-29
2023/08/12 03:00:59;;;;;;;;;;;;;;;28.40;31.76;101099.63;5039650;28;2052;-33
2023/08/12 03:03:25;;;;;;;;;;;;;;;28.33;31.85;101091.41;5058632;28;1056;-32
2023/08/12 03:05:51;;;;;;;;;;;;;;;28.29;31.88;101090.09;5058566;28;1206;-33
2023/08/12 03:08:16;;;;;;;;;;;;;;;28.23;31.98;101089.78;5040298;28;1119;-33
2023/08/12 03:10:44;;;;;;;;;;;;;;;28.21;32.13;101086.41;5040653;28;1470;-33
2023/08/12 03:13:11;;;;;;;;;;;;;;;28.29;31.77;101090.94;5049567;28;1162;-32
2023/08/12 03:15:41;;;;;;;;;;;;;;;27.88;34.05;101097.50;5044415;28;1230;-35
2023/08/12 03:18:08;;;;;;;;;;;;;;;27.29;35.48;101099.66;5040089;28;1373;-34
2023/08/12 03:20:34;;;;;;;;;;;;;;;27.05;36.51;101096.03;5039900;28;1963;-30
2023/08/12 03:23:00;;;;;;;;;;;;;;;27.23;36.42;101090.41;5039923;28;1175;-36
2023/08/12 03:25:26;;;;;;;;;;;;;;;27.35;36.28;101096.25;5040687;28;1417;-36
2023/08/12 03:27:51;;;;;;;;;;;;;;;27.11;36.74;101086.41;5039697;28;1450;-34
2023/08/12 03:30:17;;;;;;;;;;;;;;;26.96;36.87;101087.09;5040465;28;1244;-33
2023/08/12 03:32:43;;;;;;;;;;;;;;;27.01;36.50;101091.97;5057698;28;1168;-38
2023/08/12 03:35:09;;;;;;;;;;;;;;;26.86;35.78;101078.38;5040168;28;1223;-37
2023/08/12 03:37:35;;;;;;;;;;;;;;;26.97;35.07;101086.09;5039621;28;1356;-34
2023/08/12 03:40:01;;;;;;;;;;;;;;;26.84;36.50;101083.09;5039687;28;1910;-32
2023/08/12 03:42:27;;;;;;;;;;;;;;;26.90;35.57;101082.38;5039833;28;1168;-35
2023/08/12 03:44:52;;;;;;;;;;;;;;;26.89;35.50;101084.25;5039701;28;1099;-34
2023/08/12 03:47:21;;;;;;;;;;;;;;;26.86;37.29;101091.88;5039635;28;1140;-35
2023/08/12 03:49:48;;;;;;;;;;;;;;;27.16;37.24;101085.88;5039784;28;1127;-31
2023/08/12 03:52:13;;;;;;;;;;;;;;;27.08;37.69;101093.00;5060813;28;1160;-30
2023/08/12 03:54:39;;;;;;;;;;;;;;;27.22;37.35;101085.19;5049973;28;1122;-29
2023/08/12 03:57:04;;;;;;;;;;;;;;;27.04;37.49;101094.38;5057270;28;1235;-31
2023/08/12 03:59:31;;;;;;;;;;;;;;;27.04;36.63;101099.78;5057064;28;1965;-28
2023/08/12 04:01:57;;;;;;;;;;;;;;;27.20;37.56;101104.25;5039636;28;1248;-34
2023/08/12 04:04:23;;;;;;;;;;;;;;;27.46;37.62;101099.59;5039280;28;1295;-29
2023/08/12 04:06:51;;;;;;;;;;;;;;;27.54;38.26;101101.41;5059497;28;1205;-33
2023/08/12 04:09:17;;;;;;;;;;;;;;;27.83;37.21;101102.59;5052249;28;1315;-31
2023/08/12 04:11:43;;;;;;;;;;;;;;;27.95;36.86;101101.16;5064445;28;1012;-31
2023/08/12 04:14:09;;;;;;;;;;;;;;;27.82;37.48;101100.91;5059333;28;1155;-31
2023/08/12 04:16:34;;;;;;;;;;;;;;;27.79;36.90;101104.84;5059219;28;1178;-31
2023/08/12 04:19:00;;;;;;;;;;;;;;;27.90;37.17;101106.28;5058567;28;1971;-30
2023/08/12 04:21:25;;;;;;;;;;;;;;;28.11;36.00;101113.72;5047549;28;1267;-31
2023/08/12 04:23:51;;;;;;;;;;;;;;;27.94;36.58;101120.28;5039435;28;1128;-30
2023/08/12 04:26:17;;;;;;;;;;;;;;;27.91;36.47;101116.06;5059053;28;1393;-29
2023/08/12 04:28:42;;;;;;;;;;;;;;;28.05;36.88;101122.56;5076622;28;1035;-29
2023/08/12 04:31:08;;;;;;;;;;;;;;;28.17;36.68;101127.53;5059027;28;1337;-30
2023/08/12 04:33:35;;;;;;;;;;;;;;;28.10;36.10;101111.19;5026129;28;1416;-31
2023/08/12 04:36:01;;;;;;;;;;;;;;;28.26;35.86;101129.16;5052193;28;1311;-29
2023/08/12 04:38:27;;;;;;;;;;;;;;;28.40;35.93;101129.41;5049944;28;1079;-33
2023/08/12 04:40:55;;;;;;;;;;;;;;;28.25;36.39;101127.47;5058188;28;2044;-31
2023/08/12 04:43:21;;;;;;;;;;;;;;;28.16;35.74;101123.97;5052152;28;1362;-32
2023/08/12 04:45:47;;;;;;;;;;;;;;;27.97;36.74;101139.69;5038161;28;1382;-31
2023/08/12 04:48:13;;;;;;;;;;;;;;;27.73;37.46;101137.97;5038904;28;2197;-30
2023/08/12 04:50:39;;;;;;;;;;;;;;;26.63;39.90;101144.69;5030776;28;1428;-32
2023/08/12 04:53:05;;;;;;;;;;;;;;;26.58;39.67;101141.66;5046659;28;2021;-29
2023/08/12 04:55:31;;;;;;;;;;;;;;;26.75;38.84;101144.34;5057843;28;1246;-33
2023/08/12 04:57:57;;;;;;;;;;;;;;;27.18;37.87;101151.34;5057094;28;1229;-28
2023/08/12 05:00:23;;;;;;;;;;;;;;;27.44;37.16;101151.09;5076025;28;1963;-31
2023/08/12 05:02:49;;;;;;;;;;;;;;;27.53;36.97;101154.59;5057873;28;1091;-35
2023/08/12 05:05:15;;;;;;;;;;;;;;;27.43;37.11;101145.84;5058374;28;1178;-32
2023/08/12 05:07:40;;;;;;;;;;;;;;;27.48;36.58;101140.75;5076182;28;1087;-34
2023/08/12 05:10:06;;;;;;;;;;;;;;;27.67;36.48;101152.16;5052559;28;1401;-32
2023/08/12 05:12:32;;;;;;;;;;;;;;;27.60;36.44;101154.72;5057969;28;1083;-33
2023/08/12 05:14:59;;;;;;;;;;;;;;;27.63;36.35;101155.22;5058587;28;1179;-31
2023/08/12 05:17:26;;;;;;;;;;;;;;;27.65;36.02;101154.19;5058323;28;1475;-30
2023/08/12 05:19:52;;;;;;;;;;;;;;;27.94;35.52;101152.72;5058615;28;1945;-32
2023/08/12 05:22:18;;;;;;;;;;;;;;;28.04;35.55;101147.94;5047095;28;1368;-28
2023/08/12 05:24:44;;;;;;;;;;;;;;;28.04;35.89;101147.94;5062708;28;1179;-29
2023/08/12 05:27:09;;;;;;;;;;;;;;;27.74;34.01;101151.28;5044733;28;1338;-34
2023/08/12 05:29:35;;;;;;;;;;;;;;;27.60;36.25;101157.44;5064769;28;1341;-31
2023/08/12 05:32:00;;;;;;;;;;;;;;;27.67;35.93;101152.16;5076274;28;1344;-32
2023/08/12 05:34:27;;;;;;;;;;;;;;;27.80;35.59;101146.22;5065178;28;1165;-31
2023/08/12 05:36:52;;;;;;;;;;;;;;;27.34;35.45;101158.56;5072981;28;1095;-30
2023/08/12 05:39:18;;;;;;;;;;;;;;;27.67;35.40;101153.00;5075627;28;1918;-33
2023/08/12 05:41:44;;;;;;;;;;;;;;;27.92;35.77;101154.75;5075463;28;1094;-33
2023/08/12 05:44:10;;;;;;;;;;;;;;;27.77;35.53;101160.06;5075254;28;1264;-34
2023/08/12 05:46:36;;;;;;;;;;;;;;;28.07;35.25;101152.13;5064442;28;1218;-35
2023/08/12 05:49:01;;;;;;;;;;;;;;;27.75;35.77;101158.41;5069163;28;1060;-34
2023/08/12 05:51:27;;;;;;;;;;;;;;;27.98;34.98;101157.59;5067503;28;1464;-31
2023/08/12 05:53:52;;;;;;;;;;;;;;;28.24;34.93;101155.56;5076019;28;1130;-34
2023/08/12 05:56:18;;;;;;;;;;;;;;;28.32;34.72;101155.50;5075814;28;1126;-30
2023/08/12 05:58:43;;;;;;;;;;;;;;;28.26;34.72;101149.97;5063922;28;1170;-31
2023/08/12 06:01:09;;;;;;;;;;;;;;;28.14;34.58;101150.41;5069211;28;1902;-29
2023/08/12 06:03:34;;;;;;;;;;;;;;;28.05;34.76;101148.75;5075215;28;967;-29
2023/08/12 06:06:00;;;;;;;;;;;;;;;28.32;34.21;101151.94;5075888;28;1090;-31
2023/08/12 06:08:26;;;;;;;;;;;;;;;28.27;34.36;101151.63;5075792;28;1059;-32
2023/08/12 06:10:51;;;;;;;;;;;;;;;27.87;35.22;101141.78;5063191;28;1135;-33
2023/08/12 06:13:17;;;;;;;;;;;;;;;27.89;35.20;101153.25;5062148;28;1136;-30
2023/08/12 06:15:42;;;;;;;;;;;;;;;28.06;35.14;101145.88;5075476;28;1151;-28
2023/08/12 06:18:08;;;;;;;;;;;;;;;28.05;35.20;101146.91;5075774;28;1056;-32
2023/08/12 06:20:33;;;;;;;;;;;;;;;27.82;36.25;101146.88;5075631;28;1898;-28
2023/08/12 06:22:59;;;;;;;;;;;;;;;27.81;36.06;101137.91;5052439;28;1226;-30
2023/08/12 06:25:24;;;;;;;;;;;;;;;28.17;35.89;101146.47;5062643;28;1136;-32
2023/08/12 06:27:50;;;;;;;;;;;;;;;28.08;36.23;101149.25;5075505;28;1015;-31
2023/08/12 06:30:16;;;;;;;;;;;;;;;28.14;36.57;101141.44;5074868;28;1040;-31
2023/08/12 06:32:41;;;;;;;;;;;;;;;28.14;36.97;101142.28;5075130;28;1072;-29
2023/08/12 06:35:07;;;;;;;;;;;;;;;27.75;35.99;101144.88;5071895;28;1182;-31
2023/08/12 06:37:32;;;;;;;;;;;;;;;27.56;36.32;101139.91;5078778;28;1127;-32
2023/08/12 06:39:58;;;;;;;;;;;;;;;27.97;36.46;101139.69;5079052;28;1902;-31
2023/08/12 06:42:24;;;;;;;;;;;;;;;28.17;36.10;101136.50;5078947;28;1011;-31
2023/08/12 06:44:56;;;;;;;;;;;;;;;28.10;35.70;101147.19;5077290;28;1321;-29
2023/08/12 06:47:21;;;;;;;;;;;;;;;28.02;36.15;101135.59;5062434;28;1324;-31
2023/08/12 06:49:47;;;;;;;;;;;;;;;28.18;36.07;101138.19;5067148;28;1004;-30
2023/08/12 06:52:12;;;;;;;;;;;;;;;28.09;36.60;101137.38;5078589;28;1145;-31
2023/08/12 06:54:38;;;;;;;;;;;;;;;28.16;36.19;101139.38;5078292;28;1186;-29
2023/08/12 06:57:03;;;;;;;;;;;;;;;28.03;35.82;101143.53;5078244;28;1237;-35
2023/08/12 06:59:29;;;;;;;;;;;;;;;27.98;36.02;101135.94;5072991;28;1984;-28
2023/08/12 07:01:55;;;;;;;;;;;;;;;27.96;36.04;101137.16;5078577;28;1214;-33
2023/08/12 07:04:20;;;;;;;;;;;;;;;27.89;36.86;101133.47;5077667;28;1105;-30
2023/08/12 07:06:46;;;;;;;;;;;;;;;28.23;36.25;101137.63;5056591;28;1129;-30
2023/08/12 07:09:12;;;;;;;;;;;;;;;28.43;36.21;101135.28;5072766;28;1087;-31
2023/08/12 07:11:38;;;;;;;;;;;;;;;28.31;35.80;101132.16;5063940;28;860;-31
2023/08/12 07:14:03;;;;;;;;;;;;;;;28.23;36.02;101133.06;5075200;28;1029;-29
2023/08/12 07:16:29;;;;;;;;;;;;;;;28.38;34.93;101134.19;5060238;28;1062;-34
2023/08/12 07:18:54;;;;;;;;;;;;;;;28.21;35.72;101129.69;5078096;28;1910;-30
2023/08/12 07:21:20;;;;;;;;;;;;;;;28.09;36.40;101126.56;5078318;28;1163;-28
2023/08/12 07:23:45;;;;;;;;;;;;;;;28.32;35.40;101127.59;5062681;28;1161;-31
2023/08/12 07:26:11;;;;;;;;;;;;;;;28.19;36.18;101126.34;5068258;28;1301;-28
2023/08/12 07:28:37;;;;;;;;;;;;;;;28.16;36.07;101129.41;5077984;28;1083;-29
2023/08/12 07:31:02;;;;;;;;;;;;;;;28.17;36.01;101127.53;5078211;28;1066;-31
2023/08/12 07:33:28;;;;;;;;;;;;;;;28.20;35.88;101127.16;5078140;28;1500;-28
2023/08/12 07:35:53;;;;;;;;;;;;;;;28.21;35.53;101126.16;5062415;28;918;-32
2023/08/12 07:38:19;;;;;;;;;;;;;;;28.18;35.81;101124.66;5075027;28;1063;-30
2023/08/12 07:40:44;;;;;;;;;;;;;;;28.32;35.79;101123.03;5077712;28;1981;-28
2023/08/12 07:43:10;;;;;;;;;;;;;;;28.13;36.18;101120.81;5077220;28;1109;-31
2023/08/12 07:45:35;;;;;;;;;;;;;;;28.30;36.25;101126.91;5076452;28;1210;-28
2023/08/12 07:48:01;;;;;;;;;;;;;;;28.27;36.80;101116.47;5061801;28;946;-31
2023/08/12 07:50:27;;;;;;;;;;;;;;;28.35;36.19;101121.84;5071596;28;1048;-33
2023/08/12 07:52:52;;;;;;;;;;;;;;;28.19;36.37;101126.34;5077436;28;1083;-28
2023/08/12 07:55:18;;;;;;;;;;;;;;;27.16;34.15;101116.41;5077165;28;1023;-31
2023/08/12 07:57:44;;;;;;;;;;;;;;;27.42;34.32;101115.31;5077051;28;1310;-27
2023/08/12 08:00:10;;;;;;;;;;;;;;;28.08;34.61;101110.53;5061214;28;1930;-29
2023/08/12 08:02:35;;;;;;;;;;;;;;;28.10;34.74;101109.34;5069772;28;1092;-31
2023/08/12 08:05:02;;;;;;;;;;;;;;;28.08;34.92;101111.38;5071527;28;1133;-28
2023/08/12 08:07:28;;;;;;;;;;;;;;;28.11;35.50;101107.50;5069580;28;1104;-29
2023/08/12 08:09:54;;;;;;;;;;;;;;;28.29;35.87;101099.03;5076457;28;1413;-31
2023/08/12 08:12:19;;;;;;;;;;;;;;;28.36;35.47;101108.13;5060693;28;923;-27
2023/08/12 08:14:45;;;;;;;;;;;;;;;28.33;35.21;101110.34;5076466;28;1142;-30
2023/08/12 08:17:10;;;;;;;;;;;;;;;28.33;35.00;101104.94;5076718;28;1253;-28
2023/08/12 08:19:36;;;;;;;;;;;;;;;28.36;34.82;101110.84;5063303;28;1906;-32
2023/08/12 08:22:02;;;;;;;;;;;;;;;28.28;34.91;101112.75;5077433;28;1039;-29
2023/08/12 08:24:28;;;;;;;;;;;;;;;28.29;35.45;101101.75;5059461;28;1079;-32
2023/08/12 08:26:54;;;;;;;;;;;;;;;28.13;35.96;101105.41;5069188;28;1056;-29
2023/08/12 08:29:19;;;;;;;;;;;;;;;28.10;36.27;101103.06;5076674;28;1142;-32
2023/08/12 08:31:45;;;;;;;;;;;;;;;28.12;36.59;101106.44;5076599;28;1059;-34
2023/08/12 08:34:11;;;;;;;;;;;;;;;28.32;35.95;101095.13;5076694;28;1114;-30
2023/08/12 08:36:36;;;;;;;;;;;;;;;28.46;35.56;101096.22;5059386;28;878;-32
2023/08/12 08:39:02;;;;;;;;;;;;;;;28.46;35.61;101096.22;5075170;28;1910;-31
2023/08/12 08:41:28;;;;;;;;;;;;;;;28.41;35.42;101095.94;5076797;28;1052;-33
2023/08/12 08:43:54;;;;;;;;;;;;;;;28.52;35.35;101103.59;5058746;28;1107;-33
2023/08/12 08:46:20;;;;;;;;;;;;;;;28.14;35.78;101099.00;5058374;28;1175;-30
2023/08/12 08:48:45;;;;;;;;;;;;;;;28.43;35.86;101102.81;5058554;28;1151;-28
2023/08/12 08:51:11;;;;;;;;;;;;;;;28.50;36.03;101102.94;5050999;28;1071;-28
2023/08/12 08:53:37;;;;;;;;;;;;;;;28.62;35.55;101099.78;5076042;28;1215;-29
2023/08/12 08:56:03;;;;;;;;;;;;;;;28.09;36.08;101102.22;5076546;28;1162;-28
2023/08/12 08:58:29;;;;;;;;;;;;;;;27.09;34.71;101096.53;5047002;28;1393;-30
2023/08/12 09:00:55;;;;;;;;;;;;;;;26.19;35.54;101085.69;5055834;28;1972;-30
2023/08/12 09:03:20;;;;;;;;;;;;;;;27.44;34.83;101088.13;5074859;28;1128;-31
2023/08/12 09:05:46;;;;;;;;;;;;;;;27.88;34.91;101094.78;5058188;28;1115;-28
2023/08/12 09:08:12;;;;;;;;;;;;;;;27.97;35.27;101091.03;5075480;28;1091;-32
2023/08/12 09:10:39;;;;;;;;;;;;;;;28.03;35.21;101092.13;5058608;28;1206;-29
2023/08/12 09:13:06;;;;;;;;;;;;;;;28.47;35.05;101089.78;5062101;28;888;-31
2023/08/12 09:15:31;;;;;;;;;;;;;;;28.40;34.37;101083.41;5075700;28;1028;-28
2023/08/12 09:17:57;;;;;;;;;;;;;;;28.06;34.71;101089.06;5075885;28;1098;-32
2023/08/12 09:20:22;;;;;;;;;;;;;;;28.21;34.75;101082.88;5076546;28;1975;-30
2023/08/12 09:22:54;;;;;;;;;;;;;;;28.06;34.82;101090.97;5044398;28;1067;-30
2023/08/12 09:25:20;;;;;;;;;;;;;;;27.71;36.01;101075.16;5068296;28;878;-29
2023/08/12 09:27:46;;;;;;;;;;;;;;;27.73;36.15;101078.50;5059109;28;1231;-32
2023/08/12 09:30:13;;;;;;;;;;;;;;;28.26;35.60;101083.16;5075836;28;1079;-30
2023/08/12 09:32:38;;;;;;;;;;;;;;;28.06;35.93;101083.66;5075886;28;1074;-27
2023/08/12 09:35:05;;;;;;;;;;;;;;;27.96;36.72;101102.84;5076088;28;1100;-33
2023/08/12 09:37:31;;;;;;;;;;;;;;;28.05;36.68;101086.56;5062002;28;1206;-31
2023/08/12 09:39:57;;;;;;;;;;;;;;;28.28;36.49;101083.00;5075605;28;1906;-30
2023/08/12 09:42:23;;;;;;;;;;;;;;;28.22;36.68;101087.25;5058034;28;1031;-29
2023/08/12 09:44:48;;;;;;;;;;;;;;;28.43;36.45;101083.88;5075709;28;1032;-30
2023/08/12 09:47:14;;;;;;;;;;;;;;;28.26;37.12;101077.75;5074575;28;1090;-30
2023/08/12 09:49:40;;;;;;;;;;;;;;;28.25;37.10;101070.66;5055821;28;1036;-31
2023/08/12 09:52:06;;;;;;;;;;;;;;;28.16;37.31;101071.78;5072720;28;1075;-29
2023/08/12 09:54:32;;;;;;;;;;;;;;;28.35;36.85;101068.59;5075481;28;1122;-32
2023/08/12 09:57:01;;;;;;;;;;;;;;;28.32;36.98;101068.06;5075793;28;1119;-29
2023/08/12 09:59:27;;;;;;;;;;;;;;;28.21;37.47;101080.19;5073336;28;1894;-27
2023/08/12 10:01:53;;;;;;;;;;;;;;;28.38;37.18;101063.84;5062383;28;1218;-30
2023/08/12 10:04:21;;;;;;;;;;;;;;;28.47;37.22;101070.84;5075220;28;1044;-29
2023/08/12 10:06:47;;;;;;;;;;;;;;;28.53;36.96;101067.38;5061853;28;1250;-32
2023/08/12 10:09:12;;;;;;;;;;;;;;;28.28;37.27;101064.88;5077129;28;1083;-28
2023/08/12 10:11:39;;;;;;;;;;;;;;;28.36;37.09;101066.72;5058226;28;987;-32
2023/08/12 10:14:05;;;;;;;;;;;;;;;28.50;36.74;101075.03;5041466;28;1080;-29
2023/08/12 10:16:30;;;;;;;;;;;;;;;28.48;37.20;101061.69;5079326;28;1068;-29
2023/08/12 10:18:57;;;;;;;;;;;;;;;28.37;37.52;101049.47;5079572;28;1062;-29
2023/08/12 10:21:23;;;;;;;;;;;;;;;28.40;37.81;101061.75;5078709;28;1155;-29
2023/08/12 10:23:49;;;;;;;;;;;;;;;28.57;37.42;101054.31;5075163;28;1094;-32
2023/08/12 10:26:15;;;;;;;;;;;;;;;28.62;37.17;101054.63;5065165;28;1053;-32
2023/08/12 10:28:41;;;;;;;;;;;;;;;28.69;37.12;101043.88;5061246;28;1134;-27
2023/08/12 10:31:07;;;;;;;;;;;;;;;28.59;37.38;101055.81;5078800;28;1245;-28
2023/08/12 10:33:38;;;;;;;;;;;;;;;28.50;38.30;101050.66;5078956;28;1074;-28
2023/08/12 10:36:05;;;;;;;;;;;;;;;28.48;38.46;101048.16;5047601;28;1021;-31
2023/08/12 10:38:31;;;;;;;;;;;;;;;28.53;38.65;101050.31;5062254;28;1348;-30
2023/08/12 10:41:17;;;;;;;;;;;;;;;28.52;38.46;101051.34;5078618;28;1914;-30
2023/08/12 10:43:55;;;;;;;;;;;;;;;28.45;38.85;101052.09;5077859;28;1866;-34
2023/08/12 10:46:21;;;;;;;;;;;;;;;28.27;39.16;101049.69;5078516;28;1157;-34
2023/08/12 10:48:55;;;;;;;;;;;;;;;28.54;39.06;101060.97;5068058;28;1044;-30
2023/08/12 10:51:38;;;;;;;;;;;;;;;28.48;39.10;101053.56;5071682;28;1071;-30
2023/08/12 10:54:26;;;;;;;;;;;;;;;28.57;39.21;101051.63;5061480;28;1043;-28
2023/08/12 10:57:04;;;;;;;;;;;;;;;28.55;39.70;101050.97;5078853;28;1043;-30
2023/08/12 10:59:44;;;;;;;;;;;;;;;28.44;39.62;101030.63;5078445;28;1902;-33
2023/08/12 11:02:16;;;;;;;;;;;;;;;28.51;39.48;101036.94;5056155;28;1141;-33
2023/08/12 11:04:42;;;;;;;;;;;;;;;28.62;39.38;101035.66;5078101;28;1070;-33
2023/08/12 11:07:19;;;;;;;;;;;;;;;28.71;39.40;101039.13;5078177;28;1149;-26
2023/08/12 11:09:45;;;;;;;;;;;;;;;28.78;39.38;101029.22;5078403;28;1030;-28
2023/08/12 11:12:11;;;;;;;;;;;;;;;28.83;38.99;101034.91;5074653;28;1135;-26
2023/08/12 11:14:52;;;;;;;;;;;;;;;28.70;39.40;101038.28;5062579;28;1156;-29
2023/08/12 11:17:17;;;;;;;;;;;;;;;28.70;39.01;101030.16;5061177;28;1217;-28
2023/08/12 11:19:43;;;;;;;;;;;;;;;28.79;38.63;101041.75;5064927;28;1909;-32
2023/08/12 11:22:09;;;;;;;;;;;;;;;28.67;39.20;101033.25;5077458;28;1130;-32
2023/08/12 11:24:36;;;;;;;;;;;;;;;28.75;38.92;101036.88;5074498;28;1175;-30
2023/08/12 11:27:02;;;;;;;;;;;;;;;28.60;39.46;101029.59;5060812;28;1422;-30
2023/08/12 11:29:28;;;;;;;;;;;;;;;28.76;38.98;101020.44;5076969;28;1229;-30
2023/08/12 11:31:53;;;;;;;;;;;;;;;28.72;38.61;101025.41;5060558;28;1230;-33
2023/08/12 11:34:19;;;;;;;;;;;;;;;28.88;38.05;101020.81;5060000;28;1195;-30
2023/08/12 11:36:44;;;;;;;;;;;;;;;28.97;37.86;101024.28;5070864;28;1030;-31
2023/08/12 11:39:10;;;;;;;;;;;;;;;28.94;37.93;101025.47;5062028;28;1973;-31
2023/08/12 11:41:35;;;;;;;;;;;;;;;29.01;37.75;101025.56;5078098;28;1159;-30
2023/08/12 11:44:01;;;;;;;;;;;;;;;29.06;37.15;101023.13;5077072;28;1103;-29
2023/08/12 11:46:26;;;;;;;;;;;;;;;29.12;36.65;101026.13;5077843;28;1072;-29
2023/08/12 11:48:52;;;;;;;;;;;;;;;29.01;37.03;101032.88;5070160;28;847;-30
2023/08/12 11:51:18;;;;;;;;;;;;;;;28.98;37.06;101028.66;5069141;28;1132;-26
2023/08/12 11:53:43;;;;;;;;;;;;;;;28.93;37.22;101020.22;5077182;28;1373;-30
2023/08/12 11:56:09;;;;;;;;;;;;;;;28.90;37.25;101023.31;5077499;28;1139;-29
2023/08/12 11:58:36;;;;;;;;;;;;;;;28.82;37.20;101022.41;5076660;28;1204;-32
2023/08/12 12:01:02;;;;;;;;;;;;;;;28.83;37.33;101017.81;5069272;28;1918;-28
2023/08/12 12:03:27;;;;;;;;;;;;;;;28.84;36.46;101012.22;5063420;28;1302;-31
2023/08/12 12:05:55;;;;;;;;;;;;;;;29.10;35.82;101007.34;5076966;28;1162;-30
2023/08/12 12:08:21;;;;;;;;;;;;;;;29.20;35.53;101007.03;5077245;28;1328;-30
2023/08/12 12:10:46;;;;;;;;;;;;;;;29.37;35.55;101007.66;5077224;28;1113;-28
2023/08/12 12:13:13;;;;;;;;;;;;;;;29.40;35.65;101006.41;5049327;28;1039;-28
2023/08/12 12:15:41;;;;;;;;;;;;;;;29.27;35.97;101007.13;5059844;28;1128;-28
2023/08/12 12:18:11;;;;;;;;;;;;;;;29.21;35.56;101012.25;5077183;28;1135;-27
2023/08/12 12:20:36;;;;;;;;;;;;;;;29.37;35.27;101012.22;5077043;28;1975;-28
2023/08/12 12:23:05;;;;;;;;;;;;;;;29.36;35.30;101007.84;5076760;28;1114;-28
2023/08/12 12:25:31;;;;;;;;;;;;;;;29.36;35.29;101010.56;5066744;28;1135;-35
2023/08/12 12:27:56;;;;;;;;;;;;;;;29.31;35.29;101014.66;5062631;28;1147;-33
2023/08/12 12:30:22;;;;;;;;;;;;;;;29.38;35.26;101011.22;5077147;28;1226;-28
2023/08/12 12:32:48;;;;;;;;;;;;;;;29.31;35.35;101008.44;5050040;28;1143;-27
2023/08/12 12:35:13;;;;;;;;;;;;;;;29.46;35.32;101020.03;5055649;28;1001;-32
2023/08/12 12:37:39;;;;;;;;;;;;;;;29.41;35.28;101019.78;5061425;28;1578;-30
2023/08/12 12:40:05;;;;;;;;;;;;;;;29.30;35.65;101017.56;5053712;28;1997;-32
2023/08/12 12:42:30;;;;;;;;;;;;;;;29.50;34.60;101025.06;5052414;28;1102;-29